Time;durP1;ratioP1;P1;durP2;ratioP2;P2;SDS_P1;SDS_P2;PMS_P1;PMS_P2;Temp;Humidity;BMP_temperature;BMP_pressure;BME280_temperature;BME280_humidity;BME280_pressure;Samples;Min_cycle;Max_cycle;Signal;HPM_P1;HPM_P2
2023/05/08 00:00:17;;;;;;;17.05;13.23;;;16.10;99.90;;;19.02;60.30;97878.28;5013389;28;20049;-36
2023/05/08 00:02:46;;;;;;;17.40;14.00;;;16.10;99.90;;;19.02;60.14;97890.97;5013665;28;20042;-36
2023/05/08 00:05:14;;;;;;;17.10;14.00;;;16.10;99.90;;;19.00;60.12;97879.50;5013150;28;20046;-37
2023/05/08 00:07:42;;;;;;;17.27;14.10;;;16.10;99.90;;;19.02;60.18;97889.06;5013206;28;20053;-37
2023/05/08 00:10:11;;;;;;;18.17;13.07;;;16.10;99.90;;;19.04;60.28;97880.78;5013571;28;20153;-37
2023/05/08 00:12:39;;;;;;;18.52;14.80;;;16.10;99.90;;;19.04;60.31;97881.59;5013517;28;20046;-37
2023/05/08 00:15:07;;;;;;;17.38;14.23;;;16.10;99.90;;;19.04;60.09;97887.00;5012381;28;20493;-37
2023/05/08 00:17:35;;;;;;;16.58;13.85;;;16.10;99.90;;;19.05;60.10;97891.34;5005279;28;20041;-37
2023/05/08 00:20:03;;;;;;;17.02;14.82;;;16.00;99.90;;;19.03;60.20;97892.59;5013374;28;20049;-37
2023/05/08 00:22:30;;;;;;;18.45;14.90;;;16.10;99.90;;;19.02;60.14;97894.47;5013027;28;20385;-37
2023/05/08 00:24:58;;;;;;;18.13;14.05;;;16.10;99.90;;;19.03;60.13;97895.28;5013259;28;20417;-36
2023/05/08 00:27:25;;;;;;;16.02;13.50;;;16.10;99.90;;;19.01;60.15;97902.78;5012846;28;20042;-37
2023/05/08 00:29:53;;;;;;;16.85;14.65;;;16.00;99.90;;;18.97;60.24;97902.34;4995836;28;20061;-37
2023/05/08 00:32:20;;;;;;;17.15;14.30;;;16.00;99.90;;;18.95;60.18;97901.72;4995675;28;20048;-37
2023/05/08 00:34:49;;;;;;;17.60;13.98;;;15.90;99.90;;;18.96;60.20;97905.25;5013102;28;20050;-36
2023/05/08 00:37:16;;;;;;;15.93;14.20;;;16.00;99.90;;;18.97;60.25;97894.25;4995189;28;20054;-37
2023/05/08 00:39:44;;;;;;;15.75;12.50;;;16.00;99.90;;;18.99;60.40;97899.44;4994779;28;20060;-37
2023/05/08 00:42:11;;;;;;;15.18;12.60;;;16.10;99.90;;;18.99;60.32;97900.28;4995245;28;20046;-37
2023/05/08 00:44:40;;;;;;;13.65;12.23;;;16.10;99.90;;;19.02;60.30;97890.97;4994372;28;20057;-37
2023/05/08 00:47:08;;;;;;;16.33;12.02;;;16.10;99.90;;;19.02;60.22;97902.56;5012629;28;20046;-37
2023/05/08 00:49:36;;;;;;;13.77;11.57;;;16.10;99.90;;;19.02;60.31;97901.75;5012761;28;20049;-37
2023/05/08 00:52:08;;;;;;;12.68;10.50;;;16.00;99.90;;;19.01;60.30;97891.97;4994642;28;20053;-36
2023/05/08 00:54:37;;;;;;;14.38;12.05;;;16.10;99.90;;;19.00;60.33;97901.94;5004003;28;20053;-37
2023/05/08 00:57:06;;;;;;;13.82;10.63;;;16.00;99.90;;;19.01;60.31;97897.38;5012581;28;20046;-36
2023/05/08 00:59:35;;;;;;;12.73;10.88;;;16.10;99.90;;;19.00;60.22;97903.78;5011943;28;20046;-37
2023/05/08 01:02:03;;;;;;;11.82;10.63;;;16.00;99.90;;;18.97;60.28;97906.94;5012115;28;20049;-37
2023/05/08 01:04:32;;;;;;;13.68;10.90;;;16.00;99.90;;;18.96;60.34;97911.50;4986945;28;20149;-37
2023/05/08 01:07:03;;;;;;;13.15;11.48;;;16.00;99.90;;;18.93;60.24;97903.00;4978762;28;20038;-37
2023/05/08 01:09:31;;;;;;;15.40;11.30;;;15.90;99.90;;;18.93;60.17;97903.00;5011311;28;20054;-37
2023/05/08 01:12:46;;;;;;;12.07;10.70;;;15.90;99.90;;;18.90;59.98;97898.81;5012418;28;20049;-36
2023/05/08 01:15:28;;;;;;;11.98;10.65;;;16.00;99.90;;;18.92;59.92;97901.31;4990524;28;20062;-37
2023/05/08 01:18:31;;;;;;;15.40;11.90;;;15.90;99.90;;;18.87;59.97;97900.06;4993786;28;20041;-36
2023/05/08 01:21:36;;;;;;;14.07;12.05;;;15.90;99.90;;;18.81;60.04;97903.59;4977959;28;20046;-37
2023/05/08 01:24:50;;;;;;;14.95;12.38;;;15.80;99.90;;;18.82;60.05;97907.13;4990640;28;20062;-37
2023/05/08 01:28:12;;;;;;;15.10;12.70;;;15.80;99.90;;;18.79;59.89;97907.53;4994486;28;20045;-35
2023/05/08 01:31:30;;;;;;;15.43;11.98;;;15.80;99.90;;;18.78;59.99;97908.56;5004531;28;20053;-37
2023/05/08 01:34:07;;;;;;;16.75;13.63;;;15.80;99.90;;;18.74;60.00;97907.31;4982493;28;20351;-37
2023/05/08 01:37:04;;;;;;;18.20;13.48;;;15.70;99.90;;;18.67;60.04;97916.22;4970531;28;20054;-37
2023/05/08 01:39:54;;;;;;;17.95;14.15;;;15.60;99.90;;;18.68;60.18;97911.66;4993916;28;20049;-36
2023/05/08 01:42:28;;;;;;;19.30;14.38;;;15.60;99.90;;;18.67;60.58;97912.72;4994059;28;20470;-37
2023/05/08 01:45:13;;;;;;;16.15;13.70;;;15.70;99.90;;;18.69;60.38;97913.34;4986952;28;20038;-36
2023/05/08 01:47:43;;;;;;;16.42;12.98;;;15.70;99.90;;;18.69;60.59;97914.16;4971604;28;20383;-36
2023/05/08 01:50:23;;;;;;;20.58;15.30;;;15.70;99.90;;;18.72;60.49;97910.22;4975067;28;20046;-37
2023/05/08 01:53:29;;;;;;;16.40;13.45;;;15.80;99.90;;;18.71;60.51;97908.56;4993882;28;20054;-37
2023/05/08 01:56:04;;;;;;;20.45;13.95;;;15.80;99.90;;;18.74;60.62;97905.44;4974905;28;20053;-36
2023/05/08 01:58:34;;;;;;;16.48;13.05;;;15.80;99.90;;;18.75;60.71;97914.38;4999780;28;20043;-36
2023/05/08 02:01:03;;;;;;;15.65;13.68;;;15.80;99.90;;;18.76;60.63;97922.25;4986349;28;20045;-37
2023/05/08 02:03:33;;;;;;;17.67;14.02;;;15.90;99.90;;;18.76;60.48;97913.31;4993892;28;20477;-38
2023/05/08 02:06:03;;;;;;;16.67;11.93;;;15.80;99.90;;;18.76;60.46;97921.41;4977069;28;20130;-37
2023/05/08 02:08:32;;;;;;;19.15;14.27;;;15.80;99.90;;;18.75;60.58;97922.47;4984239;28;20062;-36
2023/05/08 02:11:01;;;;;;;16.33;13.60;;;15.80;99.90;;;18.76;60.61;97922.25;4983804;28;20061;-36
2023/05/08 02:13:30;;;;;;;17.65;13.82;;;15.80;99.90;;;18.80;60.69;97920.00;4984989;28;20061;-37
2023/05/08 02:16:00;;;;;;;14.98;12.73;;;15.90;99.90;;;18.81;60.69;97927.06;4977055;28;20046;-36
2023/05/08 02:18:30;;;;;;;16.15;12.73;;;15.90;99.90;;;18.83;60.65;97922.28;4983879;28;20491;-41
2023/05/08 02:21:02;;;;;;;16.67;12.45;;;15.90;99.90;;;18.83;60.85;97916.91;5011566;28;20042;-37
2023/05/08 02:23:31;;;;;;;17.83;13.77;;;16.00;99.90;;;18.84;60.46;97923.94;5002289;28;20490;-37
2023/05/08 02:26:02;;;;;;;16.77;12.40;;;15.90;99.90;;;18.84;60.44;97923.94;4993008;28;20046;-37
2023/05/08 02:28:31;;;;;;;19.40;13.02;;;15.90;99.90;;;18.81;60.38;97924.38;5010001;28;20041;-37
2023/05/08 02:31:00;;;;;;;15.60;12.98;;;15.80;99.90;;;18.78;60.50;97924.72;5002364;28;20049;-36
2023/05/08 02:33:29;;;;;;;16.65;13.27;;;15.80;99.90;;;18.77;60.60;97932.00;4993438;28;20046;-36
2023/05/08 02:35:58;;;;;;;15.02;12.90;;;15.80;99.90;;;18.79;60.62;97926.41;4992594;28;20406;-37
2023/05/08 02:38:30;;;;;;;16.20;14.32;;;15.80;99.90;;;18.80;60.62;97928.91;4983445;28;20058;-37
2023/05/08 02:41:01;;;;;;;15.55;13.35;;;15.90;99.90;;;18.81;60.58;97935.16;4985759;28;20053;-36
2023/05/08 02:43:29;;;;;;;17.25;13.88;;;15.90;99.90;;;18.80;60.56;97931.59;4993170;28;20045;-36
2023/05/08 02:46:00;;;;;;;14.85;12.82;;;15.90;99.90;;;18.80;60.63;97933.47;5011404;28;20053;-36
2023/05/08 02:48:53;;;;;;;17.27;13.88;;;15.90;99.90;;;18.82;60.44;97931.41;5010871;28;20042;-37
2023/05/08 02:51:53;;;;;;;15.93;13.95;;;15.90;99.90;;;18.85;60.27;97934.53;4993621;28;20394;-37
2023/05/08 02:54:50;;;;;;;19.30;13.43;;;15.90;99.90;;;18.84;60.39;97932.88;4996496;28;20049;-37
2023/05/08 02:57:30;;;;;;;15.55;12.98;;;15.90;99.90;;;18.84;60.46;97932.03;5002940;28;20041;-37
2023/05/08 03:00:17;;;;;;;15.35;12.90;;;15.90;99.90;;;18.84;60.48;97932.03;4991496;28;20041;-37
2023/05/08 03:03:02;;;;;;;14.65;12.35;;;15.90;99.90;;;18.85;60.45;97931.00;5003282;28;20053;-37
2023/05/08 03:05:34;;;;;;;19.25;15.00;;;15.90;99.90;;;18.81;60.54;97927.88;4981890;28;20422;-37
2023/05/08 03:08:14;;;;;;;14.73;13.00;;;15.80;99.90;;;18.81;60.47;97927.06;4985479;28;20057;-37
2023/05/08 03:10:48;;;;;;;16.38;12.95;;;15.90;99.90;;;18.79;60.77;97921.84;4985461;28;20528;-37
2023/05/08 03:13:18;;;;;;;;;;;15.80;99.90;;;18.87;59.95;97921.66;4985856;28;20050;-37
2023/05/08 03:15:59;;;;;;;16.90;13.52;;;15.80;99.90;;;18.83;60.24;97925.00;4984378;28;19928;-37
2023/05/08 03:18:40;;;;;;;15.52;12.82;;;15.70;99.90;;;18.79;60.58;97923.72;4980507;28;20073;-37
2023/05/08 03:21:12;;;;;;;15.77;14.05;;;15.70;99.90;;;18.76;60.51;97916.84;4970073;28;20046;-37
2023/05/08 03:23:42;;;;;;;16.17;13.57;;;15.70;99.90;;;18.75;60.67;97919.78;4986220;28;20054;-37
2023/05/08 03:26:10;;;;;;;17.75;14.43;;;15.80;99.90;;;18.74;60.66;97918.09;4996670;28;20053;-37
2023/05/08 03:28:39;;;;;;;18.23;14.18;;;15.70;99.90;;;18.73;60.71;97916.41;4996911;28;20046;-37
2023/05/08 03:31:07;;;;;;;17.27;13.25;;;15.70;99.90;;;18.72;60.76;97921.00;4996835;28;20046;-37
2023/05/08 03:33:37;;;;;;;18.40;14.20;;;15.80;99.90;;;18.69;60.82;97929.50;5014466;28;20421;-37
2023/05/08 03:36:05;;;;;;;17.98;14.65;;;15.70;99.90;;;18.67;60.89;97920.81;4995966;28;20050;-37
2023/05/08 03:38:34;;;;;;;19.15;14.10;;;15.70;99.90;;;18.67;61.04;97916.22;4996661;28;20054;-37
2023/05/08 03:41:03;;;;;;;18.90;14.32;;;15.70;99.90;;;18.68;60.83;97917.06;4988553;28;20050;-37
2023/05/08 03:43:31;;;;;;;18.38;13.55;;;15.70;99.90;;;18.68;60.76;97925.16;4995857;28;20056;-37
2023/05/08 03:45:59;;;;;;;18.25;14.02;;;15.70;99.90;;;18.67;60.86;97921.63;4996689;28;20393;-37
2023/05/08 03:48:30;;;;;;;18.08;14.10;;;15.70;99.90;;;18.65;60.92;97926.41;4983656;28;20054;-37
2023/05/08 03:50:59;;;;;;;18.50;13.75;;;15.70;99.90;;;18.66;60.89;97927.22;4988636;28;20050;-37
2023/05/08 03:53:29;;;;;;;17.40;12.50;;;15.70;99.90;;;18.67;61.02;97926.19;4988176;28;20501;-37
2023/05/08 03:55:59;;;;;;;18.52;13.38;;;15.70;99.90;;;18.69;60.82;97924.94;4995906;28;20094;-37
2023/05/08 03:58:44;;;;;;;19.42;14.52;;;15.80;99.90;;;18.70;60.66;97923.88;4995726;28;20049;-37
2023/05/08 04:01:44;;;;;;;19.13;14.15;;;15.70;99.90;;;18.72;60.65;97922.88;5005127;28;20490;-37
2023/05/08 04:04:17;;;;;;;17.75;13.95;;;15.80;99.90;;;18.74;60.54;97929.72;4980415;28;20047;-37
2023/05/08 04:07:22;;;;;;;17.92;13.88;;;15.70;99.90;;;18.69;60.44;97927.63;4987330;28;20038;-37
2023/05/08 04:10:14;;;;;;;24.17;14.85;;;15.70;99.90;;;18.67;60.48;97923.50;4953215;28;20042;-37
2023/05/08 04:13:01;;;;;;;22.08;14.65;;;15.60;99.90;;;18.63;60.77;97935.72;5002588;28;20390;-37
2023/05/08 04:15:33;;;;;;;17.63;14.30;;;15.70;99.90;;;18.59;61.23;97938.00;4995032;28;20049;-37
2023/05/08 04:18:08;;;;;;;22.85;14.05;;;15.70;99.90;;;18.59;61.09;97939.84;4972142;28;20069;-37
2023/05/08 04:20:40;;;;;;;25.42;14.15;;;15.70;99.90;;;18.60;61.19;97949.63;4987973;28;20050;-37
2023/05/08 04:23:12;;;;;;;19.58;13.48;;;15.70;99.90;;;18.59;61.21;97945.25;4979391;28;20046;-37
2023/05/08 04:25:43;;;;;;;15.35;12.75;;;15.70;99.90;;;18.59;61.24;97940.72;4986985;28;20523;-37
2023/05/08 04:28:11;;;;;;;16.90;13.20;;;15.70;99.90;;;18.61;61.24;97944.03;4987656;28;20501;-37
2023/05/08 04:30:40;;;;;;;17.90;12.77;;;15.70;99.90;;;18.63;61.15;97947.34;4995537;28;20054;-37
2023/05/08 04:33:08;;;;;;;15.07;12.50;;;15.70;99.90;;;18.65;61.10;97953.34;5013169;28;20042;-37
2023/05/08 04:35:36;;;;;;;16.05;12.07;;;15.80;99.90;;;18.65;61.22;97950.66;4984252;28;20633;-37
2023/05/08 04:38:04;;;;;;;16.92;12.68;;;15.70;99.90;;;18.66;61.11;97951.47;4995031;28;20421;-37
2023/05/08 04:40:32;;;;;;;17.95;12.68;;;15.70;99.90;;;18.66;61.02;97952.31;4994994;28;20449;-37
2023/05/08 04:42:59;;;;;;;18.02;12.40;;;15.70;99.90;;;18.66;61.04;97951.47;4994939;28;20038;-37
2023/05/08 04:45:27;;;;;;;16.60;12.38;;;15.70;99.90;;;18.67;61.16;97956.69;4981547;28;20502;-37
2023/05/08 04:47:54;;;;;;;16.40;12.50;;;15.70;99.90;;;18.69;61.03;97961.88;5012557;28;20045;-37
2023/05/08 04:50:23;;;;;;;15.85;12.20;;;15.70;99.90;;;18.71;60.96;97959.81;4994761;28;20505;-37
2023/05/08 04:52:51;;;;;;;13.32;10.93;;;15.80;99.90;;;18.73;60.93;97959.56;4987653;28;20050;-37
2023/05/08 04:55:19;;;;;;;14.10;11.50;;;15.80;99.90;;;18.74;61.09;97964.75;4994977;28;20053;-37
2023/05/08 04:57:47;;;;;;;17.60;12.77;;;15.90;99.90;;;18.75;60.90;97965.63;4994561;28;20049;-37
2023/05/08 05:00:15;;;;;;;19.63;12.50;;;15.90;99.90;;;18.76;60.91;97973.47;4994925;28;20053;-37
2023/05/08 05:02:43;;;;;;;14.77;12.60;;;15.90;99.90;;;18.81;60.86;97975.63;4995377;28;20046;-37
2023/05/08 05:05:11;;;;;;;15.05;12.73;;;15.90;99.90;;;18.80;60.84;97976.63;4994936;28;20526;-37
2023/05/08 05:07:40;;;;;;;15.77;12.13;;;15.90;99.90;;;18.82;60.84;97985.34;4994261;28;20049;-37
2023/05/08 05:10:08;;;;;;;18.10;11.75;;;15.90;99.90;;;18.80;60.88;97977.44;4978936;28;20046;-37
2023/05/08 05:12:37;;;;;;;16.42;12.40;;;15.90;99.90;;;18.80;60.90;97980.16;4992552;28;20057;-37
2023/05/08 05:15:05;;;;;;;18.80;13.55;;;15.90;99.90;;;18.84;60.88;97977.88;5012192;28;20041;-37
2023/05/08 05:17:35;;;;;;;15.20;12.18;;;15.90;99.90;;;18.86;60.73;97982.06;4994744;28;20050;-37
2023/05/08 05:20:04;;;;;;;16.50;12.82;;;15.90;99.90;;;18.86;60.75;97982.06;4994618;28;20050;-37
2023/05/08 05:22:32;;;;;;;17.02;12.98;;;15.90;99.90;;;18.85;60.81;97983.06;4993973;28;20054;-37
2023/05/08 05:25:00;;;;;;;16.77;12.95;;;16.00;99.90;;;18.84;60.74;97976.03;4994334;28;20042;-37
2023/05/08 05:27:28;;;;;;;18.40;12.65;;;16.00;99.90;;;18.86;60.85;97983.91;4993903;28;20051;-37
2023/05/08 05:29:56;;;;;;;17.95;13.90;;;16.00;99.90;;;18.87;60.83;97982.88;4994106;28;20391;-37
2023/05/08 05:32:26;;;;;;;19.00;13.57;;;16.00;99.90;;;18.90;61.02;97982.44;4978539;28;20042;-37
2023/05/08 05:34:54;;;;;;;17.13;12.65;;;16.00;99.90;;;18.91;60.82;97994.09;5013303;28;20038;-37
2023/05/08 05:37:22;;;;;;;19.83;13.43;;;16.00;99.90;;;18.92;60.90;97991.19;4994876;28;20038;-37
2023/05/08 05:39:50;;;;;;;19.13;14.18;;;16.00;99.90;;;18.93;60.95;97992.00;4993664;28;20037;-37
2023/05/08 05:42:18;;;;;;;16.92;12.70;;;16.00;99.90;;;18.94;61.09;97997.19;4993852;28;20050;-37
2023/05/08 05:44:46;;;;;;;15.75;11.77;;;16.00;99.90;;;18.97;60.97;98001.34;4994189;28;20052;-37
2023/05/08 05:47:14;;;;;;;14.57;11.43;;;16.00;99.90;;;18.95;60.95;98001.53;4993025;28;20395;-37
2023/05/08 05:49:45;;;;;;;15.52;11.63;;;16.00;99.90;;;18.95;61.00;97993.47;5011007;28;20046;-37
2023/05/08 05:52:13;;;;;;;14.10;11.60;;;16.00;99.90;;;18.93;61.01;97995.53;4994334;28;20046;-37
2023/05/08 05:54:41;;;;;;;15.80;11.43;;;16.00;99.90;;;18.97;60.87;97995.94;4994236;28;20073;-37
2023/05/08 05:57:09;;;;;;;15.00;11.20;;;16.00;99.90;;;18.98;60.89;97993.06;4994031;28;20042;-37
2023/05/08 05:59:37;;;;;;;13.50;11.80;;;16.00;99.90;;;19.00;60.90;98003.63;4993615;28;20053;-37
2023/05/08 06:02:06;;;;;;;15.35;11.02;;;16.10;99.90;;;19.01;60.69;98002.59;5002121;28;20042;-37
2023/05/08 06:04:34;;;;;;;12.90;9.90;;;16.10;99.90;;;19.00;60.81;98004.47;4993837;28;20046;-37
2023/05/08 06:07:02;;;;;;;13.77;10.77;;;16.10;99.90;;;19.00;60.92;97996.38;4994308;28;20050;-37
2023/05/08 06:09:30;;;;;;;12.30;10.57;;;16.00;99.90;;;19.02;60.93;98004.28;4993898;28;20033;-37
2023/05/08 06:11:58;;;;;;;10.90;9.25;;;16.10;99.90;;;19.01;61.02;98003.41;4977739;28;20049;-37
2023/05/08 06:14:25;;;;;;;14.27;11.32;;;16.10;99.90;;;19.02;60.87;98005.09;5010919;28;20053;-37
2023/05/08 06:16:53;;;;;;;11.52;8.77;;;16.10;99.90;;;19.02;60.87;98009.66;4993561;28;20053;-37
2023/05/08 06:19:23;;;;;;;12.75;9.32;;;16.10;99.90;;;19.00;60.80;98014.41;5011353;28;20421;-37
2023/05/08 06:21:51;;;;;;;10.80;8.80;;;16.10;99.90;;;18.94;60.79;98008.00;5011581;28;20041;-37
2023/05/08 06:24:19;;;;;;;11.63;9.70;;;16.00;99.90;;;18.92;60.81;98014.63;5011450;28;20042;-37
2023/05/08 06:26:46;;;;;;;11.38;8.75;;;16.00;99.90;;;18.92;60.99;98012.78;5010647;28;20042;-37
2023/05/08 06:29:14;;;;;;;13.48;10.90;;;16.00;99.90;;;18.93;61.23;98011.72;5011323;28;20046;-37
2023/05/08 06:31:42;;;;;;;12.35;9.98;;;16.10;99.90;;;18.95;61.06;98009.63;5010818;28;20052;-37
2023/05/08 06:34:11;;;;;;;12.07;10.40;;;16.10;99.90;;;18.96;61.20;98014.00;5011087;28;20050;-37
2023/05/08 06:36:38;;;;;;;10.50;8.50;;;16.10;99.90;;;18.99;61.06;98013.59;5011102;28;20045;-37
2023/05/08 06:39:06;;;;;;;11.70;9.02;;;16.20;99.90;;;19.04;60.94;98015.69;5011110;28;20045;-37
2023/05/08 06:41:34;;;;;;;10.30;8.70;;;16.20;99.90;;;19.06;60.88;98019.81;4993626;28;20506;-37
2023/05/08 06:44:01;;;;;;;10.15;8.98;;;16.20;99.90;;;19.10;60.92;98022.13;5011653;28;20045;-37
2023/05/08 06:46:29;;;;;;;10.52;8.88;;;16.20;99.90;;;19.11;60.90;98018.38;5010959;28;20049;-37
2023/05/08 06:48:56;;;;;;;11.88;9.38;;;16.20;99.90;;;19.13;60.81;98022.50;5003060;28;20413;-37
2023/05/08 06:51:25;;;;;;;10.27;9.23;;;16.20;99.90;;;19.13;60.79;98017.13;5011323;28;20042;-37
2023/05/08 06:53:52;;;;;;;12.75;9.15;;;16.20;99.90;;;19.16;60.68;98022.13;5012317;28;20049;-37
2023/05/08 06:56:21;;;;;;;15.15;11.52;;;16.30;99.90;;;19.20;60.73;98014.44;5011163;28;20046;-37
2023/05/08 06:58:49;;;;;;;10.50;9.00;;;16.30;99.90;;;19.23;60.56;98016.72;5011969;28;20046;-37
2023/05/08 07:01:27;;;;;;;10.02;8.68;;;16.30;99.90;;;19.28;60.71;98019.63;5014873;28;20049;-37
2023/05/08 07:03:54;;;;;;;13.88;8.40;;;16.40;99.90;;;19.31;60.85;98021.91;5014575;28;20045;-37
2023/05/08 07:06:22;;;;;;;11.10;8.13;;;16.40;99.90;;;19.36;60.77;98018.59;5014742;28;20417;-37
2023/05/08 07:08:50;;;;;;;10.00;7.97;;;16.50;99.90;;;19.38;60.63;98020.03;5014639;28;20186;-37
2023/05/08 07:11:17;;;;;;;10.63;8.35;;;16.50;99.90;;;19.40;60.40;98019.81;5014877;28;20053;-37
2023/05/08 07:13:47;;;;;;;10.52;9.43;;;16.50;99.90;;;19.44;60.51;98015.66;5014794;28;20065;-37
2023/05/08 07:16:15;;;;;;;10.60;9.23;;;16.50;99.90;;;19.47;60.72;98017.97;5013704;28;20057;-37
2023/05/08 07:18:43;;;;;;;12.25;9.23;;;16.50;99.90;;;19.49;60.62;98015.88;5014401;28;20505;-37
2023/05/08 07:21:10;;;;;;;11.40;10.10;;;16.50;99.90;;;19.52;60.55;98020.03;5014631;28;20042;-37
2023/05/08 07:23:38;;;;;;;11.70;9.55;;;16.60;99.90;;;19.52;60.45;98020.03;5014501;28;20064;-37
2023/05/08 07:26:07;;;;;;;10.05;9.05;;;16.60;99.90;;;19.53;60.53;98021.69;5014351;28;20038;-37
2023/05/08 07:28:34;;;;;;;11.05;8.93;;;16.60;99.90;;;19.57;60.62;98025.63;5013059;28;20049;-37
2023/05/08 07:31:08;;;;;;;12.27;9.95;;;16.70;99.90;;;19.60;60.67;98020.66;5014538;28;20037;-37
2023/05/08 07:33:35;;;;;;;11.20;10.10;;;16.70;99.90;;;19.67;60.26;98026.03;5014300;28;20049;-37
2023/05/08 07:36:03;;;;;;;10.85;9.13;;;16.70;99.90;;;19.71;60.35;98024.56;4996715;28;20042;-37
2023/05/08 07:38:31;;;;;;;9.45;8.45;;;16.80;99.90;;;19.77;60.51;98026.44;5014000;28;20038;-37
2023/05/08 07:41:00;;;;;;;9.77;8.75;;;17.00;99.90;;;19.82;60.50;98023.94;5014114;28;20045;-37
2023/05/08 07:43:28;;;;;;;9.65;8.65;;;17.00;99.90;;;19.86;60.08;98030.59;5014208;28;20030;-37
2023/05/08 07:45:56;;;;;;;11.68;8.70;;;17.00;99.90;;;19.90;59.97;98030.19;5013693;28;20034;-37
2023/05/08 07:48:23;;;;;;;11.18;9.05;;;17.10;99.90;;;19.93;59.99;98030.59;4996495;28;20046;-37
2023/05/08 07:50:51;;;;;;;11.57;9.45;;;17.00;99.90;;;19.96;60.11;98037.44;4996134;28;20050;-37
2023/05/08 07:53:18;;;;;;;9.82;8.93;;;17.00;99.90;;;19.98;60.09;98033.47;5014062;28;20053;-37
2023/05/08 07:55:46;;;;;;;9.73;8.30;;;17.10;99.90;;;20.00;59.77;98027.84;5013783;28;20050;-37
2023/05/08 07:58:13;;;;;;;10.20;8.68;;;17.10;99.90;;;20.03;59.61;98035.56;5013648;28;20046;-37
2023/05/08 08:00:41;;;;;;;9.93;8.93;;;17.10;99.90;;;20.02;59.87;98036.56;4996449;28;20049;-37
2023/05/08 08:03:09;;;;;;;9.00;8.10;;;17.10;99.90;;;20.04;59.63;98032.59;5013816;28;20042;-37
2023/05/08 08:05:36;;;;;;;11.40;8.57;;;17.10;99.90;;;20.09;59.97;98029.28;5013448;28;20409;-37
2023/05/08 08:08:04;;;;;;;9.60;8.13;;;17.10;99.90;;;20.13;59.47;98032.41;4996396;28;20042;-37
2023/05/08 08:10:32;;;;;;;9.35;8.40;;;17.20;99.90;;;20.14;59.23;98036.75;5014094;28;20060;-37
2023/05/08 08:13:03;;;;;;;8.73;7.85;;;17.20;99.90;;;20.16;59.14;98037.38;5010737;28;20481;-37
2023/05/08 08:15:30;;;;;;;8.82;7.50;;;17.20;99.90;;;20.17;59.49;98039.03;5012800;28;20061;-37
2023/05/08 08:17:58;;;;;;;8.30;7.50;;;17.20;99.90;;;20.16;59.55;98040.06;5013105;28;20050;-37
2023/05/08 08:20:26;;;;;;;9.35;8.45;;;17.20;99.90;;;20.16;59.21;98038.22;5014104;28;20049;-37
2023/05/08 08:22:53;;;;;;;8.07;6.75;;;17.20;99.90;;;20.18;59.13;98037.97;4996178;28;20056;-37
2023/05/08 08:25:21;;;;;;;8.77;7.88;;;17.20;99.90;;;20.17;59.48;98039.03;4995820;28;20045;-37
2023/05/08 08:27:48;;;;;;;9.25;8.27;;;17.10;99.90;;;20.16;59.34;98035.50;5013090;28;20046;-37
2023/05/08 08:30:16;;;;;;;7.78;6.75;;;17.20;99.90;;;20.16;59.07;98042.78;5013462;28;20101;-37
2023/05/08 08:32:45;;;;;;;9.02;8.13;;;17.20;99.90;;;20.14;59.31;98042.16;5013205;28;20440;-37
2023/05/08 08:35:13;;;;;;;9.07;7.70;;;17.10;99.90;;;20.14;59.41;98042.16;5013037;28;20494;-37
2023/05/08 08:37:42;;;;;;;9.98;8.07;;;17.20;99.90;;;20.10;59.12;98035.50;4995212;28;20050;-37
2023/05/08 08:40:09;;;;;;;8.88;7.55;;;17.10;99.90;;;20.09;59.26;98036.56;5013089;28;20072;-37
2023/05/08 08:42:37;;;;;;;8.27;7.47;;;17.10;99.90;;;20.06;58.90;98040.50;5012917;28;20498;-37
2023/05/08 08:45:05;;;;;;;8.65;7.75;;;17.10;99.90;;;20.05;59.27;98041.56;5012687;28;20037;-37
2023/05/08 08:47:37;;;;;;;9.48;7.57;;;17.00;99.90;;;20.02;59.27;98040.09;5012748;28;20053;-37
2023/05/08 08:50:07;;;;;;;9.43;7.05;;;17.00;99.90;;;20.02;58.87;98041.97;4987411;28;20050;-37
2023/05/08 08:53:00;;;;;;;8.75;7.10;;;17.00;99.90;;;20.00;58.98;98041.38;4996191;28;20053;-37
2023/05/08 08:55:29;;;;;;;6.65;5.95;;;17.00;99.90;;;19.97;58.94;98041.81;5012824;28;20046;-37
2023/05/08 08:58:05;;;;;;;8.05;6.97;;;16.90;99.90;;;19.96;58.89;98042.84;5012529;28;20061;-37
2023/05/08 09:00:36;;;;;;;6.90;6.20;;;17.00;99.90;;;19.93;58.94;98044.09;5012899;28;20449;-37
2023/05/08 09:03:06;;;;;;;7.50;6.70;;;16.90;99.90;;;19.93;59.30;98056.75;5011955;28;20403;-37
2023/05/08 09:05:34;;;;;;;7.38;6.68;;;16.90;99.90;;;19.90;59.34;98049.91;5012544;28;20045;-37
2023/05/08 09:08:02;;;;;;;9.85;7.68;;;16.90;99.90;;;19.89;59.14;98053.66;5012455;28;20038;-37
2023/05/08 09:10:30;;;;;;;7.78;6.95;;;16.90;99.90;;;19.89;59.30;98050.13;5012713;28;20497;-37
2023/05/08 09:12:58;;;;;;;8.15;7.20;;;16.90;99.90;;;19.87;59.02;98055.72;5012485;28;20053;-37
2023/05/08 09:15:25;;;;;;;7.93;7.15;;;16.90;99.90;;;19.84;58.61;98059.69;5011744;28;20046;-37
2023/05/08 09:17:53;;;;;;;8.48;7.70;;;16.80;99.90;;;19.84;59.40;98051.59;4999796;28;20054;-37
2023/05/08 09:20:21;;;;;;;8.50;7.63;;;16.90;99.90;;;19.85;59.30;98057.81;5012529;28;20421;-37
2023/05/08 09:22:51;;;;;;;8.95;7.10;;;16.90;99.90;;;19.84;59.37;98062.38;5011470;28;20061;-37
2023/05/08 09:25:19;;;;;;;9.23;8.27;;;16.90;99.90;;;19.85;59.06;98058.66;5012254;28;20045;-37
2023/05/08 09:27:47;;;;;;;9.48;8.27;;;16.90;99.90;;;19.83;59.11;98066.16;5011867;28;20054;-37
2023/05/08 09:30:14;;;;;;;10.13;9.05;;;17.00;99.90;;;19.82;59.12;98063.66;4995051;28;20046;-37
2023/05/08 09:32:44;;;;;;;10.90;9.02;;;16.90;99.90;;;19.83;59.47;98058.03;5012089;28;20497;-37
2023/05/08 09:35:12;;;;;;;9.88;8.43;;;17.00;99.90;;;19.84;59.26;98053.47;5011953;28;20037;-37
2023/05/08 09:37:42;;;;;;;10.82;9.73;;;16.90;99.90;;;19.84;59.39;98061.56;5012033;28;20045;-37
2023/05/08 09:40:21;;;;;;;10.35;9.35;;;16.90;99.90;;;19.92;59.28;98063.22;4991378;28;20043;-37
2023/05/08 09:42:49;;;;;;;10.98;9.75;;;17.00;99.90;;;19.96;59.09;98065.28;4992333;28;20049;-37
2023/05/08 09:45:28;;;;;;;10.43;9.25;;;17.10;99.90;;;20.05;58.51;98063.19;5012024;28;20037;-37
2023/05/08 09:47:56;;;;;;;10.30;9.20;;;17.20;99.90;;;20.10;58.76;98062.53;5011221;28;20050;-37
2023/05/08 09:50:24;;;;;;;12.52;9.73;;;17.30;99.90;;;20.10;58.19;98070.66;5011784;28;20049;-37
2023/05/08 09:52:52;;;;;;;12.13;10.55;;;17.20;99.90;;;20.09;59.03;98063.59;5011824;28;20054;-37
2023/05/08 09:55:19;;;;;;;11.13;10.02;;;17.20;99.90;;;20.13;58.66;98062.94;4992687;28;20053;-37
2023/05/08 09:57:57;;;;;;;11.27;10.07;;;17.20;99.90;;;20.18;58.77;98065.00;4999569;28;20046;-37
2023/05/08 10:00:27;;;;;;;11.05;9.90;;;17.30;99.90;;;20.22;58.98;98061.69;5011845;28;20061;-37
2023/05/08 10:02:57;;;;;;;10.80;9.65;;;17.30;99.90;;;20.32;58.76;98061.22;5011748;28;20046;-37
2023/05/08 10:05:30;;;;;;;11.55;9.43;;;17.50;99.90;;;20.44;58.28;98059.50;5011466;28;20042;-37
2023/05/08 10:08:25;;;;;;;10.77;8.73;;;17.60;99.90;;;20.55;57.76;98063.44;5011483;28;20042;-37
2023/05/08 10:10:52;;;;;;;10.25;9.25;;;17.60;99.90;;;20.65;57.50;98060.28;4993587;28;20053;-37
2023/05/08 10:13:20;;;;;;;9.48;8.50;;;17.70;99.90;;;20.69;57.34;98066.09;5011649;28;20513;-37
2023/05/08 10:15:53;;;;;;;10.13;8.07;;;17.80;99.90;;;20.71;57.25;98054.00;5010729;28;20057;-37
2023/05/08 10:18:23;;;;;;;11.13;8.48;;;17.80;99.90;;;20.73;57.77;98057.34;4994070;28;20053;-37
2023/05/08 10:20:53;;;;;;;9.85;8.85;;;17.70;99.90;;;20.75;57.49;98074.19;5002531;28;20394;-37
2023/05/08 10:23:21;;;;;;;10.55;8.95;;;17.80;99.90;;;20.76;57.06;98066.88;4992324;28;20046;-37
2023/05/08 10:26:00;;;;;;;11.07;9.90;;;17.80;99.90;;;20.76;57.22;98064.19;5008802;28;20045;-37
2023/05/08 10:28:53;;;;;;;10.60;9.20;;;17.80;99.90;;;20.76;56.89;98065.03;5011095;28;20050;-37